sensor_id;sensor_type;location;lat;lon;timestamp;pressure;altitude;pressure_sealevel;temperature;humidity
54948;BME280;41113;41.882;12.530;2023-10-19T00:00:54;100443.66;;;19.08;77.85
54948;BME280;41113;41.882;12.530;2023-10-19T00:03:21;100447.22;;;19.09;77.05
54948;BME280;41113;41.882;12.530;2023-10-19T00:05:48;100448.09;;;19.16;76.31
54948;BME280;41113;41.882;12.530;2023-10-19T00:08:14;100459.91;;;19.23;75.92
54948;BME280;41113;41.882;12.530;2023-10-19T00:10:40;100473.78;;;19.28;75.27
54948;BME280;41113;41.882;12.530;2023-10-19T00:13:09;100482.19;;;19.33;75.08
54948;BME280;41113;41.882;12.530;2023-10-19T00:15:36;100474.84;;;19.34;74.79
54948;BME280;41113;41.882;12.530;2023-10-19T00:18:28;100476.75;;;19.33;74.90
54948;BME280;41113;41.882;12.530;2023-10-19T00:20:57;100479.06;;;19.36;74.54
54948;BME280;41113;41.882;12.530;2023-10-19T00:23:36;100491.63;;;19.37;74.52
54948;BME280;41113;41.882;12.530;2023-10-19T00:26:03;100507.56;;;19.40;74.51
54948;BME280;41113;41.882;12.530;2023-10-19T00:28:45;100526.66;;;19.40;75.54
54948;BME280;41113;41.882;12.530;2023-10-19T00:31:12;100533.97;;;19.40;74.96
54948;BME280;41113;41.882;12.530;2023-10-19T00:33:38;100530.59;;;19.38;75.29
54948;BME280;41113;41.882;12.530;2023-10-19T00:36:04;100510.25;;;19.34;73.91
54948;BME280;41113;41.882;12.530;2023-10-19T00:38:39;100519.28;;;19.34;74.15
54948;BME280;41113;41.882;12.530;2023-10-19T00:41:05;100542.78;;;19.42;74.14
54948;BME280;41113;41.882;12.530;2023-10-19T00:43:42;100564.81;;;19.47;74.09
54948;BME280;41113;41.882;12.530;2023-10-19T00:46:08;100599.00;;;19.49;73.93
54948;BME280;41113;41.882;12.530;2023-10-19T00:48:44;100591.88;;;19.48;74.79
54948;BME280;41113;41.882;12.530;2023-10-19T00:51:10;100549.22;;;19.34;74.68
54948;BME280;41113;41.882;12.530;2023-10-19T00:53:48;100485.47;;;19.22;75.41
54948;BME280;41113;41.882;12.530;2023-10-19T00:56:14;100498.44;;;19.20;75.36
54948;BME280;41113;41.882;12.530;2023-10-19T00:58:42;100502.19;;;19.19;75.52
54948;BME280;41113;41.882;12.530;2023-10-19T01:01:12;100490.25;;;19.20;75.55
54948;BME280;41113;41.882;12.530;2023-10-19T01:03:39;100494.28;;;19.24;75.94
54948;BME280;41113;41.882;12.530;2023-10-19T01:06:04;100481.69;;;19.23;75.71
54948;BME280;41113;41.882;12.530;2023-10-19T01:08:39;100472.28;;;19.25;75.46
54948;BME280;41113;41.882;12.530;2023-10-19T01:11:07;100462.88;;;19.28;75.09
54948;BME280;41113;41.882;12.530;2023-10-19T01:13:36;100461.16;;;19.20;75.87
54948;BME280;41113;41.882;12.530;2023-10-19T01:16:01;100456.28;;;19.16;75.75
54948;BME280;41113;41.882;12.530;2023-10-19T01:18:26;100433.84;;;19.14;76.33
54948;BME280;41113;41.882;12.530;2023-10-19T01:20:58;100444.75;;;19.14;76.67
54948;BME280;41113;41.882;12.530;2023-10-19T01:23:27;100437.63;;;19.13;77.11
54948;BME280;41113;41.882;12.530;2023-10-19T01:25:56;100424.00;;;19.13;77.24
54948;BME280;41113;41.882;12.530;2023-10-19T01:28:22;100423.75;;;19.08;77.64
54948;BME280;41113;41.882;12.530;2023-10-19T01:30:54;100430.41;;;18.99;78.69
54948;BME280;41113;41.882;12.530;2023-10-19T01:33:19;100423.91;;;19.00;78.59
54948;BME280;41113;41.882;12.530;2023-10-19T01:35:45;100422.88;;;19.01;78.22
54948;BME280;41113;41.882;12.530;2023-10-19T01:38:29;100416.19;;;19.03;78.45
54948;BME280;41113;41.882;12.530;2023-10-19T01:41:01;100413.69;;;19.02;78.55
54948;BME280;41113;41.882;12.530;2023-10-19T01:43:30;100409.28;;;19.01;78.57
54948;BME280;41113;41.882;12.530;2023-10-19T01:45:56;100412.88;;;19.08;78.05
54948;BME280;41113;41.882;12.530;2023-10-19T01:48:22;100415.84;;;19.13;78.19
54948;BME280;41113;41.882;12.530;2023-10-19T01:50:59;100415.84;;;19.13;78.23
54948;BME280;41113;41.882;12.530;2023-10-19T01:53:25;100408.38;;;18.93;79.21
54948;BME280;41113;41.882;12.530;2023-10-19T01:55:50;100401.91;;;18.94;79.10
54948;BME280;41113;41.882;12.530;2023-10-19T01:58:26;100398.59;;;18.99;79.09
54948;BME280;41113;41.882;12.530;2023-10-19T02:00:54;100374.69;;;18.94;79.31
54948;BME280;41113;41.882;12.530;2023-10-19T02:03:21;100372.78;;;18.88;79.62
54948;BME280;41113;41.882;12.530;2023-10-19T02:05:56;100364.13;;;18.85;79.84
54948;BME280;41113;41.882;12.530;2023-10-19T02:08:22;100373.59;;;18.89;79.29
54948;BME280;41113;41.882;12.530;2023-10-19T02:10:50;100376.38;;;18.95;78.95
54948;BME280;41113;41.882;12.530;2023-10-19T02:13:15;100354.84;;;19.01;78.34
54948;BME280;41113;41.882;12.530;2023-10-19T02:15:42;100351.72;;;19.04;77.87
54948;BME280;41113;41.882;12.530;2023-10-19T02:18:08;100357.16;;;19.04;77.58
54948;BME280;41113;41.882;12.530;2023-10-19T02:20:34;100363.88;;;19.08;77.29
54948;BME280;41113;41.882;12.530;2023-10-19T02:22:59;100371.00;;;19.09;76.98
54948;BME280;41113;41.882;12.530;2023-10-19T02:25:28;100362.03;;;19.15;76.56
54948;BME280;41113;41.882;12.530;2023-10-19T02:27:55;100355.56;;;19.16;76.33
54948;BME280;41113;41.882;12.530;2023-10-19T02:30:20;100352.81;;;19.16;76.10
54948;BME280;41113;41.882;12.530;2023-10-19T02:32:46;100351.78;;;19.17;75.56
54948;BME280;41113;41.882;12.530;2023-10-19T02:35:13;100349.34;;;19.22;75.46
54948;BME280;41113;41.882;12.530;2023-10-19T02:37:38;100353.97;;;19.28;75.56
54948;BME280;41113;41.882;12.530;2023-10-19T02:40:04;100372.63;;;19.31;74.99
54948;BME280;41113;41.882;12.530;2023-10-19T02:42:37;100364.25;;;19.33;75.61
54948;BME280;41113;41.882;12.530;2023-10-19T02:45:03;100346.84;;;19.27;76.80
54948;BME280;41113;41.882;12.530;2023-10-19T02:47:30;100343.88;;;19.22;78.28
54948;BME280;41113;41.882;12.530;2023-10-19T02:49:55;100341.94;;;19.16;77.39
54948;BME280;41113;41.882;12.530;2023-10-19T02:52:21;100328.50;;;19.08;76.69
54948;BME280;41113;41.882;12.530;2023-10-19T02:54:47;100329.13;;;19.10;75.58
54948;BME280;41113;41.882;12.530;2023-10-19T02:57:12;100327.91;;;19.12;75.28
54948;BME280;41113;41.882;12.530;2023-10-19T02:59:38;100330.84;;;19.17;75.27
54948;BME280;41113;41.882;12.530;2023-10-19T03:02:04;100324.53;;;19.10;75.33
54948;BME280;41113;41.882;12.530;2023-10-19T03:04:42;100316.13;;;19.05;75.34
54948;BME280;41113;41.882;12.530;2023-10-19T03:07:07;100316.97;;;19.06;74.73
54948;BME280;41113;41.882;12.530;2023-10-19T03:09:33;100307.34;;;19.10;74.44
54948;BME280;41113;41.882;12.530;2023-10-19T03:12:01;100287.88;;;19.06;74.12
54948;BME280;41113;41.882;12.530;2023-10-19T03:14:34;100283.50;;;19.12;74.30
54948;BME280;41113;41.882;12.530;2023-10-19T03:16:59;100289.56;;;19.14;74.11
54948;BME280;41113;41.882;12.530;2023-10-19T03:19:25;100279.09;;;19.11;74.38
54948;BME280;41113;41.882;12.530;2023-10-19T03:21:50;100265.06;;;19.14;75.08
54948;BME280;41113;41.882;12.530;2023-10-19T03:24:16;100272.63;;;19.18;75.98
54948;BME280;41113;41.882;12.530;2023-10-19T03:27:00;100264.53;;;19.25;76.45
54948;BME280;41113;41.882;12.530;2023-10-19T03:29:25;100256.16;;;19.26;76.69
54948;BME280;41113;41.882;12.530;2023-10-19T03:31:57;100269.78;;;19.33;76.75
54948;BME280;41113;41.882;12.530;2023-10-19T03:34:23;100272.72;;;19.38;78.05
54948;BME280;41113;41.882;12.530;2023-10-19T03:36:49;100273.19;;;19.48;77.78
54948;BME280;41113;41.882;12.530;2023-10-19T03:39:15;100263.59;;;19.52;78.33
54948;BME280;41113;41.882;12.530;2023-10-19T03:41:42;100268.00;;;19.53;78.13
54948;BME280;41113;41.882;12.530;2023-10-19T03:44:09;100270.34;;;19.56;78.34
54948;BME280;41113;41.882;12.530;2023-10-19T03:46:49;100268.66;;;19.55;78.11
54948;BME280;41113;41.882;12.530;2023-10-19T03:49:19;100257.13;;;19.60;78.67
54948;BME280;41113;41.882;12.530;2023-10-19T03:51:44;100239.97;;;19.66;80.14
54948;BME280;41113;41.882;12.530;2023-10-19T03:54:28;100230.13;;;19.72;80.84
54948;BME280;41113;41.882;12.530;2023-10-19T03:56:54;100228.88;;;19.81;80.94
54948;BME280;41113;41.882;12.530;2023-10-19T03:59:22;100228.91;;;19.87;81.00
54948;BME280;41113;41.882;12.530;2023-10-19T04:01:47;100249.22;;;19.92;81.11
54948;BME280;41113;41.882;12.530;2023-10-19T04:04:13;100229.75;;;20.01;81.37
54948;BME280;41113;41.882;12.530;2023-10-19T04:06:41;100215.69;;;20.04;81.08
54948;BME280;41113;41.882;12.530;2023-10-19T04:09:12;100197.84;;;20.08;81.02
54948;BME280;41113;41.882;12.530;2023-10-19T04:11:40;100220.09;;;20.18;80.95
54948;BME280;41113;41.882;12.530;2023-10-19T04:14:15;100221.56;;;20.21;80.86
54948;BME280;41113;41.882;12.530;2023-10-19T04:16:41;100216.34;;;20.19;80.70
54948;BME280;41113;41.882;12.530;2023-10-19T04:19:08;100216.34;;;20.19;80.89
54948;BME280;41113;41.882;12.530;2023-10-19T04:21:35;100205.00;;;20.23;81.05
54948;BME280;41113;41.882;12.530;2023-10-19T04:24:03;100194.72;;;20.25;81.21
54948;BME280;41113;41.882;12.530;2023-10-19T04:26:29;100205.00;;;20.23;81.10
54948;BME280;41113;41.882;12.530;2023-10-19T04:29:01;100198.28;;;20.18;80.79
54948;BME280;41113;41.882;12.530;2023-10-19T04:31:34;100218.81;;;20.14;78.67
54948;BME280;41113;41.882;12.530;2023-10-19T04:34:02;100210.44;;;20.09;79.23
54948;BME280;41113;41.882;12.530;2023-10-19T04:36:32;100208.75;;;20.08;79.34
54948;BME280;41113;41.882;12.530;2023-10-19T04:38:58;100203.31;;;20.08;80.18
54948;BME280;41113;41.882;12.530;2023-10-19T04:41:25;100191.56;;;20.14;80.93
54948;BME280;41113;41.882;12.530;2023-10-19T04:43:52;100186.56;;;20.18;80.96
54948;BME280;41113;41.882;12.530;2023-10-19T04:46:17;100184.03;;;20.23;81.33
54948;BME280;41113;41.882;12.530;2023-10-19T04:48:44;100183.59;;;20.26;81.16
54948;BME280;41113;41.882;12.530;2023-10-19T04:51:09;100191.56;;;20.28;81.83
54948;BME280;41113;41.882;12.530;2023-10-19T04:53:35;100181.69;;;20.33;81.87
54948;BME280;41113;41.882;12.530;2023-10-19T04:56:00;100184.44;;;20.40;82.49
54948;BME280;41113;41.882;12.530;2023-10-19T04:58:26;100191.56;;;20.41;82.34
54948;BME280;41113;41.882;12.530;2023-10-19T05:00:52;100181.28;;;20.49;82.36
54948;BME280;41113;41.882;12.530;2023-10-19T05:03:18;100173.50;;;20.53;82.88
54948;BME280;41113;41.882;12.530;2023-10-19T05:05:44;100161.34;;;20.56;83.07
54948;BME280;41113;41.882;12.530;2023-10-19T05:08:09;100161.75;;;20.59;83.06
54948;BME280;41113;41.882;12.530;2023-10-19T05:10:34;100157.97;;;20.60;83.12
54948;BME280;41113;41.882;12.530;2023-10-19T05:12:59;100160.03;;;20.65;83.07
54948;BME280;41113;41.882;12.530;2023-10-19T05:15:25;100160.03;;;20.65;82.80
54948;BME280;41113;41.882;12.530;2023-10-19T05:17:50;100162.56;;;20.66;83.06
54948;BME280;41113;41.882;12.530;2023-10-19T05:20:15;100160.88;;;20.65;83.01
54948;BME280;41113;41.882;12.530;2023-10-19T05:22:41;100163.38;;;20.67;83.20
54948;BME280;41113;41.882;12.530;2023-10-19T05:25:06;100158.78;;;20.67;83.50
54948;BME280;41113;41.882;12.530;2023-10-19T05:27:33;100159.19;;;20.71;83.47
54948;BME280;41113;41.882;12.530;2023-10-19T05:29:58;100160.00;;;20.71;83.22
54948;BME280;41113;41.882;12.530;2023-10-19T05:32:23;100158.34;;;20.70;83.36
54948;BME280;41113;41.882;12.530;2023-10-19T05:34:49;100158.75;;;20.74;82.99
54948;BME280;41113;41.882;12.530;2023-10-19T05:37:14;100165.88;;;20.75;82.63
54948;BME280;41113;41.882;12.530;2023-10-19T05:39:41;100151.19;;;20.83;82.97
54948;BME280;41113;41.882;12.530;2023-10-19T05:42:07;100155.78;;;20.82;82.58
54948;BME280;41113;41.882;12.530;2023-10-19T05:44:32;100163.34;;;20.87;83.03
54948;BME280;41113;41.882;12.530;2023-10-19T05:46:58;100168.56;;;20.88;82.83
54948;BME280;41113;41.882;12.530;2023-10-19T05:49:23;100159.13;;;20.91;83.10
54948;BME280;41113;41.882;12.530;2023-10-19T05:51:49;100157.00;;;20.93;82.93
54948;BME280;41113;41.882;12.530;2023-10-19T05:54:14;100165.38;;;20.98;83.65
54948;BME280;41113;41.882;12.530;2023-10-19T05:56:39;100162.81;;;21.03;82.99
54948;BME280;41113;41.882;12.530;2023-10-19T05:59:05;100164.50;;;21.04;82.88
54948;BME280;41113;41.882;12.530;2023-10-19T06:01:31;100150.19;;;21.08;83.03
54948;BME280;41113;41.882;12.530;2023-10-19T06:03:57;100159.84;;;21.11;83.90
54948;BME280;41113;41.882;12.530;2023-10-19T06:06:22;100161.09;;;21.15;83.95
54948;BME280;41113;41.882;12.530;2023-10-19T06:08:47;100156.88;;;21.19;84.28
54948;BME280;41113;41.882;12.530;2023-10-19T06:11:13;100160.66;;;21.25;83.93
54948;BME280;41113;41.882;12.530;2023-10-19T06:13:38;100156.88;;;21.26;83.79
54948;BME280;41113;41.882;12.530;2023-10-19T06:16:04;100170.31;;;21.27;83.98
54948;BME280;41113;41.882;12.530;2023-10-19T06:18:29;100167.34;;;21.29;83.60
54948;BME280;41113;41.882;12.530;2023-10-19T06:20:54;100176.22;;;21.24;83.51
54948;BME280;41113;41.882;12.530;2023-10-19T06:23:20;100170.31;;;21.27;83.90
54948;BME280;41113;41.882;12.530;2023-10-19T06:25:45;100168.38;;;21.34;84.21
54948;BME280;41113;41.882;12.530;2023-10-19T06:28:11;100159.28;;;21.40;84.14
54948;BME280;41113;41.882;12.530;2023-10-19T06:30:37;100168.72;;;21.44;83.99
54948;BME280;41113;41.882;12.530;2023-10-19T06:33:02;100174.84;;;21.47;83.91
54948;BME280;41113;41.882;12.530;2023-10-19T06:35:28;100175.63;;;21.54;83.80
54948;BME280;41113;41.882;12.530;2023-10-19T06:37:54;100177.06;;;21.56;83.22
54948;BME280;41113;41.882;12.530;2023-10-19T06:40:20;100177.69;;;21.58;83.70
54948;BME280;41113;41.882;12.530;2023-10-19T06:42:45;100170.50;;;21.64;83.83
54948;BME280;41113;41.882;12.530;2023-10-19T06:45:12;100185.63;;;21.66;84.19
54948;BME280;41113;41.882;12.530;2023-10-19T06:47:41;100180.31;;;21.71;84.20
54948;BME280;41113;41.882;12.530;2023-10-19T06:50:07;100181.97;;;21.79;83.79
54948;BME280;41113;41.882;12.530;2023-10-19T06:52:35;100182.75;;;21.86;83.81
54948;BME280;41113;41.882;12.530;2023-10-19T06:55:01;100188.38;;;21.91;83.56
54948;BME280;41113;41.882;12.530;2023-10-19T06:57:27;100196.75;;;21.96;83.22
54948;BME280;41113;41.882;12.530;2023-10-19T06:59:52;100179.06;;;21.99;83.53
54948;BME280;41113;41.882;12.530;2023-10-19T07:02:17;100192.47;;;22.07;83.65
54948;BME280;41113;41.882;12.530;2023-10-19T07:04:45;100182.34;;;22.14;82.40
54948;BME280;41113;41.882;12.530;2023-10-19T07:07:10;100191.53;;;22.20;82.53
54948;BME280;41113;41.882;12.530;2023-10-19T07:09:36;100195.66;;;22.29;82.49
54948;BME280;41113;41.882;12.530;2023-10-19T07:12:01;100192.00;;;22.35;81.76
54948;BME280;41113;41.882;12.530;2023-10-19T07:14:27;100192.56;;;22.44;81.36
54948;BME280;41113;41.882;12.530;2023-10-19T07:16:52;100207.88;;;22.51;80.63
54948;BME280;41113;41.882;12.530;2023-10-19T07:19:17;100200.88;;;22.55;80.92
54948;BME280;41113;41.882;12.530;2023-10-19T07:21:43;100213.50;;;22.56;80.73
54948;BME280;41113;41.882;12.530;2023-10-19T07:24:13;100224.00;;;22.59;81.17
54948;BME280;41113;41.882;12.530;2023-10-19T07:26:38;100220.81;;;22.62;81.30
54948;BME280;41113;41.882;12.530;2023-10-19T07:29:16;100228.94;;;22.69;81.56
54948;BME280;41113;41.882;12.530;2023-10-19T07:31:41;100222.97;;;22.79;81.10
54948;BME280;41113;41.882;12.530;2023-10-19T07:34:07;100221.00;;;22.86;80.91
54948;BME280;41113;41.882;12.530;2023-10-19T07:36:33;100231.03;;;22.92;80.57
54948;BME280;41113;41.882;12.530;2023-10-19T07:39:01;100238.66;;;22.90;80.96
54948;BME280;41113;41.882;12.530;2023-10-19T07:41:27;100241.63;;;22.88;81.00
54948;BME280;41113;41.882;12.530;2023-10-19T07:43:58;100239.09;;;22.87;80.83
54948;BME280;41113;41.882;12.530;2023-10-19T07:46:23;100246.41;;;22.93;81.00
54948;BME280;41113;41.882;12.530;2023-10-19T07:48:48;100244.28;;;22.95;80.43
54948;BME280;41113;41.882;12.530;2023-10-19T07:51:14;100252.03;;;22.98;79.90
54948;BME280;41113;41.882;12.530;2023-10-19T07:53:39;100252.66;;;23.00;79.68
54948;BME280;41113;41.882;12.530;2023-10-19T07:56:05;100253.41;;;23.07;80.01
54948;BME280;41113;41.882;12.530;2023-10-19T07:58:30;100255.03;;;23.15;79.23
54948;BME280;41113;41.882;12.530;2023-10-19T08:00:56;100244.44;;;23.18;78.17
54948;BME280;41113;41.882;12.530;2023-10-19T08:03:21;100247.78;;;23.20;78.42
54948;BME280;41113;41.882;12.530;2023-10-19T08:05:47;100240.16;;;23.22;79.64
54948;BME280;41113;41.882;12.530;2023-10-19T08:08:12;100245.78;;;23.27;79.19
54948;BME280;41113;41.882;12.530;2023-10-19T08:10:37;100249.66;;;23.38;78.82
54948;BME280;41113;41.882;12.530;2023-10-19T08:13:03;100243.69;;;23.41;78.82
54948;BME280;41113;41.882;12.530;2023-10-19T08:15:28;100250.09;;;23.35;78.67
54948;BME280;41113;41.882;12.530;2023-10-19T08:17:56;100255.91;;;23.27;78.95
54948;BME280;41113;41.882;12.530;2023-10-19T08:20:22;100245.19;;;23.25;78.84
54948;BME280;41113;41.882;12.530;2023-10-19T08:22:55;100247.38;;;23.35;78.91
54948;BME280;41113;41.882;12.530;2023-10-19T08:25:24;100253.81;;;23.41;78.31
54948;BME280;41113;41.882;12.530;2023-10-19T08:27:52;100247.50;;;23.40;78.41
54948;BME280;41113;41.882;12.530;2023-10-19T08:30:21;100252.16;;;23.40;78.42
54948;BME280;41113;41.882;12.530;2023-10-19T08:32:47;100250.47;;;23.39;78.66
54948;BME280;41113;41.882;12.530;2023-10-19T08:35:16;100257.41;;;23.41;78.68
54948;BME280;41113;41.882;12.530;2023-10-19T08:37:54;100248.28;;;23.47;78.38
54948;BME280;41113;41.882;12.530;2023-10-19T08:40:20;100250.94;;;23.54;78.44
54948;BME280;41113;41.882;12.530;2023-10-19T08:42:46;100248.97;;;23.61;78.29
54948;BME280;41113;41.882;12.530;2023-10-19T08:45:13;100241.00;;;23.71;77.91
54948;BME280;41113;41.882;12.530;2023-10-19T08:47:58;100241.28;;;23.81;77.71
54948;BME280;41113;41.882;12.530;2023-10-19T08:50:28;100241.44;;;23.86;77.39
54948;BME280;41113;41.882;12.530;2023-10-19T08:52:54;100238.09;;;23.84;77.66
54948;BME280;41113;41.882;12.530;2023-10-19T08:55:20;100242.59;;;23.79;77.79
54948;BME280;41113;41.882;12.530;2023-10-19T08:57:48;100235.75;;;23.70;77.84
54948;BME280;41113;41.882;12.530;2023-10-19T09:00:14;100233.16;;;23.75;77.83
54948;BME280;41113;41.882;12.530;2023-10-19T09:02:42;100227.97;;;23.97;76.91
54948;BME280;41113;41.882;12.530;2023-10-19T09:05:08;100225.16;;;24.15;75.93
54948;BME280;41113;41.882;12.530;2023-10-19T09:07:34;100234.09;;;24.22;75.61
54948;BME280;41113;41.882;12.530;2023-10-19T09:09:59;100232.34;;;24.28;75.22
54948;BME280;41113;41.882;12.530;2023-10-19T09:12:26;100230.22;;;24.41;75.03
54948;BME280;41113;41.882;12.530;2023-10-19T09:14:52;100226.53;;;24.47;74.68
54948;BME280;41113;41.882;12.530;2023-10-19T09:17:27;100228.53;;;24.52;74.10
54948;BME280;41113;41.882;12.530;2023-10-19T09:19:53;100231.78;;;24.49;73.99
54948;BME280;41113;41.882;12.530;2023-10-19T09:22:19;100235.97;;;24.40;74.54
54948;BME280;41113;41.882;12.530;2023-10-19T09:24:51;100227.81;;;24.33;74.35
54948;BME280;41113;41.882;12.530;2023-10-19T09:27:18;100225.91;;;24.34;74.73
54948;BME280;41113;41.882;12.530;2023-10-19T09:29:44;100221.72;;;24.31;74.42
54948;BME280;41113;41.882;12.530;2023-10-19T09:32:10;100215.88;;;24.28;74.44
54948;BME280;41113;41.882;12.530;2023-10-19T09:34:38;100222.41;;;24.27;74.83
54948;BME280;41113;41.882;12.530;2023-10-19T09:37:06;100221.88;;;24.48;74.28
54948;BME280;41113;41.882;12.530;2023-10-19T09:39:31;100227.72;;;24.75;73.00
54948;BME280;41113;41.882;12.530;2023-10-19T09:42:00;100215.47;;;24.94;71.70
54948;BME280;41113;41.882;12.530;2023-10-19T09:44:28;100208.56;;;25.03;70.92
54948;BME280;41113;41.882;12.530;2023-10-19T09:46:57;100218.81;;;25.20;70.38
54948;BME280;41113;41.882;12.530;2023-10-19T09:49:22;100216.41;;;25.23;70.35
54948;BME280;41113;41.882;12.530;2023-10-19T09:51:49;100215.66;;;25.28;69.75
54948;BME280;41113;41.882;12.530;2023-10-19T09:56:49;100195.84;;;25.26;69.83
54948;BME280;41113;41.882;12.530;2023-10-19T09:59:26;100196.81;;;25.20;69.83
54948;BME280;41113;41.882;12.530;2023-10-19T10:02:13;100190.00;;;25.22;70.58
54948;BME280;41113;41.882;12.530;2023-10-19T10:04:40;100182.84;;;25.21;70.49
54948;BME280;41113;41.882;12.530;2023-10-19T10:07:06;100177.69;;;25.25;70.60
54948;BME280;41113;41.882;12.530;2023-10-19T10:09:41;100174.94;;;25.25;71.24
54948;BME280;41113;41.882;12.530;2023-10-19T10:12:23;100167.03;;;25.28;70.84
54948;BME280;41113;41.882;12.530;2023-10-19T10:17:23;100157.53;;;25.36;70.59
54948;BME280;41113;41.882;12.530;2023-10-19T10:19:49;100147.53;;;25.30;70.75
54948;BME280;41113;41.882;12.530;2023-10-19T10:22:14;100148.13;;;25.32;70.85
54948;BME280;41113;41.882;12.530;2023-10-19T10:24:41;100149.78;;;25.33;71.01
54948;BME280;41113;41.882;12.530;2023-10-19T10:27:06;100140.38;;;25.29;71.07
54948;BME280;41113;41.882;12.530;2023-10-19T10:29:31;100137.03;;;25.27;71.25
54948;BME280;41113;41.882;12.530;2023-10-19T10:31:58;100129.28;;;25.24;71.47
54948;BME280;41113;41.882;12.530;2023-10-19T10:37:10;100136.59;;;25.47;70.72
54948;BME280;41113;41.882;12.530;2023-10-19T10:39:37;100128.94;;;25.49;70.41
54948;BME280;41113;41.882;12.530;2023-10-19T10:42:03;100119.75;;;25.43;71.07
54948;BME280;41113;41.882;12.530;2023-10-19T10:47:12;100118.72;;;25.32;72.04
54948;BME280;41113;41.882;12.530;2023-10-19T10:49:48;100117.75;;;25.38;71.95
54948;BME280;41113;41.882;12.530;2023-10-19T10:52:22;100106.50;;;25.40;71.26
54948;BME280;41113;41.882;12.530;2023-10-19T10:54:48;100101.84;;;25.40;71.08
54948;BME280;41113;41.882;12.530;2023-10-19T10:57:13;100093.25;;;25.37;70.90
54948;BME280;41113;41.882;12.530;2023-10-19T10:59:38;100097.38;;;25.23;71.48
54948;BME280;41113;41.882;12.530;2023-10-19T11:02:15;100093.47;;;25.19;72.02
54948;BME280;41113;41.882;12.530;2023-10-19T11:04:45;100096.69;;;25.16;72.51
54948;BME280;41113;41.882;12.530;2023-10-19T11:07:17;100100.09;;;25.06;72.74
54948;BME280;41113;41.882;12.530;2023-10-19T11:09:46;100094.00;;;24.92;73.66
54948;BME280;41113;41.882;12.530;2023-10-19T11:12:11;100087.25;;;24.83;73.88
54948;BME280;41113;41.882;12.530;2023-10-19T11:14:37;100074.59;;;24.82;74.97
54948;BME280;41113;41.882;12.530;2023-10-19T11:17:11;100075.09;;;24.79;74.68
54948;BME280;41113;41.882;12.530;2023-10-19T11:19:38;100065.66;;;24.75;74.97
54948;BME280;41113;41.882;12.530;2023-10-19T11:22:04;100070.09;;;24.76;74.80
54948;BME280;41113;41.882;12.530;2023-10-19T11:24:34;100056.22;;;24.71;75.35
54948;BME280;41113;41.882;12.530;2023-10-19T11:27:07;100049.56;;;24.67;76.03
54948;BME280;41113;41.882;12.530;2023-10-19T11:29:35;100054.72;;;24.63;75.97
54948;BME280;41113;41.882;12.530;2023-10-19T11:32:00;100052.44;;;24.72;76.01
54948;BME280;41113;41.882;12.530;2023-10-19T11:34:27;100046.19;;;24.76;75.31
54948;BME280;41113;41.882;12.530;2023-10-19T11:36:54;100042.13;;;24.79;76.09
54948;BME280;41113;41.882;12.530;2023-10-19T11:39:22;100033.97;;;24.84;76.31
54948;BME280;41113;41.882;12.530;2023-10-19T11:41:48;100037.81;;;24.83;75.34
54948;BME280;41113;41.882;12.530;2023-10-19T11:44:14;100038.41;;;24.85;74.83
54948;BME280;41113;41.882;12.530;2023-10-19T11:46:39;100035.06;;;24.83;75.50
54948;BME280;41113;41.882;12.530;2023-10-19T11:49:04;100022.81;;;24.74;74.78
54948;BME280;41113;41.882;12.530;2023-10-19T11:51:29;100031.50;;;24.71;76.65
54948;BME280;41113;41.882;12.530;2023-10-19T11:53:56;100015.53;;;24.68;76.69
54948;BME280;41113;41.882;12.530;2023-10-19T11:56:21;100025.44;;;24.69;76.27
54948;BME280;41113;41.882;12.530;2023-10-19T11:58:47;100024.25;;;24.65;76.47
54948;BME280;41113;41.882;12.530;2023-10-19T12:01:12;100013.28;;;24.65;76.86
54948;BME280;41113;41.882;12.530;2023-10-19T12:03:41;100024.25;;;24.65;76.88
54948;BME280;41113;41.882;12.530;2023-10-19T12:06:07;100021.59;;;24.70;76.15
54948;BME280;41113;41.882;12.530;2023-10-19T12:08:33;100028.31;;;24.74;76.73
54948;BME280;41113;41.882;12.530;2023-10-19T12:10:59;100038.88;;;24.82;76.06
54948;BME280;41113;41.882;12.530;2023-10-19T12:13:26;100034.47;;;24.81;75.14
54948;BME280;41113;41.882;12.530;2023-10-19T12:15:53;100034.66;;;24.91;73.76
54948;BME280;41113;41.882;12.530;2023-10-19T12:18:20;100033.66;;;24.97;73.77
54948;BME280;41113;41.882;12.530;2023-10-19T12:20:45;100034.41;;;25.04;73.55
54948;BME280;41113;41.882;12.530;2023-10-19T12:23:11;100042.03;;;25.02;73.15
54948;BME280;41113;41.882;12.530;2023-10-19T12:25:36;100047.41;;;24.97;73.29
54948;BME280;41113;41.882;12.530;2023-10-19T12:28:03;100043.00;;;24.96;73.34
54948;BME280;41113;41.882;12.530;2023-10-19T12:30:29;100037.03;;;24.99;73.09
54948;BME280;41113;41.882;12.530;2023-10-19T12:33:00;100036.28;;;25.04;73.14
54948;BME280;41113;41.882;12.530;2023-10-19T12:35:25;100038.41;;;25.13;72.59
54948;BME280;41113;41.882;12.530;2023-10-19T12:38:07;100040.75;;;25.22;72.16
54948;BME280;41113;41.882;12.530;2023-10-19T12:40:33;100035.59;;;25.25;72.00
54948;BME280;41113;41.882;12.530;2023-10-19T12:43:00;100037.75;;;25.23;72.43
54948;BME280;41113;41.882;12.530;2023-10-19T12:45:28;100026.66;;;25.18;71.74
54948;BME280;41113;41.882;12.530;2023-10-19T12:47:54;100036.66;;;25.07;72.12
54948;BME280;41113;41.882;12.530;2023-10-19T12:50:19;100042.88;;;25.03;72.42
54948;BME280;41113;41.882;12.530;2023-10-19T12:52:51;100034.50;;;24.98;72.01